Time;durP1;ratioP1;P1;durP2;ratioP2;P2;SDS_P1;SDS_P2;PMS_P1;PMS_P2;Temp;Humidity;BMP_temperature;BMP_pressure;BME280_temperature;BME280_humidity;BME280_pressure;Samples;Min_cycle;Max_cycle;Signal;HPM_P1;HPM_P2
2022/10/04 00:01:49;;;;;;;1.67;0.20;;;;;;;6.97;100.00;98437.69;1721378;82;21664;-70
2022/10/04 00:04:30;;;;;;;0.62;0.17;;;;;;;6.91;100.00;98441.49;1715617;83;21087;-71
2022/10/04 00:07:08;;;;;;;1.60;0.20;;;;;;;6.98;100.00;98445.52;1740704;82;21495;-72
2022/10/04 00:09:47;;;;;;;0.40;0.10;;;;;;;7.03;100.00;98443.87;1746209;82;21517;-70
2022/10/04 00:12:39;;;;;;;2.67;0.20;;;;;;;7.03;100.00;98438.45;1719206;82;20983;-70
2022/10/04 00:15:20;;;;;;;1.92;0.20;;;;;;;7.04;100.00;98435.48;1733905;82;21106;-71
2022/10/04 00:18:08;;;;;;;1.65;0.23;;;;;;;7.09;100.00;98444.09;1726093;82;21670;-71
2022/10/04 00:20:53;;;;;;;0.78;0.30;;;;;;;7.09;100.00;98446.80;1729293;82;21097;-73
2022/10/04 00:23:30;;;;;;;0.30;0.20;;;;;;;7.08;100.00;98437.90;1738026;82;21063;-71
2022/10/04 00:26:03;;;;;;;0.78;0.17;;;;;;;7.12;100.00;98452.45;1740193;82;21083;-69
2022/10/04 00:28:43;;;;;;;0.55;0.30;;;;;;;7.16;100.00;98459.47;1714451;83;21129;-68
2022/10/04 00:31:21;;;;;;;0.25;0.15;;;;;;;7.13;100.00;98450.56;1726729;82;21134;-69
2022/10/04 00:33:52;;;;;;;0.90;0.25;;;;;;;7.16;100.00;98454.06;1745456;82;21075;-66
2022/10/04 00:36:32;;;;;;;2.12;0.20;;;;;;;7.18;100.00;98451.36;1743152;82;21715;-66
2022/10/04 00:39:10;;;;;;;1.10;0.30;;;;;;;7.22;100.00;98450.25;1734000;82;21070;-70
2022/10/04 00:41:48;;;;;;;2.00;0.30;;;;;;;7.20;100.00;98451.88;1729528;82;21080;-67
2022/10/04 00:44:29;;;;;;;0.40;0.20;;;;;;;7.25;100.00;98455.91;1716782;82;21545;-66
2022/10/04 00:46:56;;;;;;;1.10;0.30;;;;;;;7.28;100.00;98453.18;1728975;81;22474;-65
2022/10/04 00:49:25;;;;;;;0.70;0.30;;;;;;;7.30;100.00;98461.81;1715609;83;21036;-66
2022/10/04 00:52:03;;;;;;;0.20;0.20;;;;;;;7.28;100.00;98455.89;1725327;82;21083;-66
2022/10/04 00:54:40;;;;;;;0.95;0.30;;;;;;;7.31;100.00;98460.20;1742323;82;21067;-70
2022/10/04 00:57:15;;;;;;;1.85;0.25;;;;;;;7.35;100.00;98453.67;1724303;82;21043;-69
2022/10/04 01:00:03;;;;;;;2.15;0.30;;;;;;;7.40;100.00;98460.42;1746486;82;21537;-71
2022/10/04 01:02:44;;;;;;;0.75;0.20;;;;;;;7.39;100.00;98462.86;1739145;82;20980;-68
2022/10/04 01:05:28;;;;;;;0.42;0.25;;;;;;;7.39;100.00;98460.14;1685868;82;21558;-67
2022/10/04 01:08:13;;;;;;;1.00;0.23;;;;;;;7.45;100.00;98454.41;1739180;82;21027;-67
2022/10/04 01:10:53;;;;;;;0.40;0.20;;;;;;;7.45;100.00;98458.47;1741297;82;21568;-65
2022/10/04 01:13:27;;;;;;;0.40;0.20;;;;;;;7.41;100.00;98444.41;1687494;82;21055;-67
2022/10/04 01:16:05;;;;;;;0.95;0.30;;;;;;;7.42;100.00;98460.94;1716958;82;21078;-69
2022/10/04 01:18:33;;;;;;;0.60;0.23;;;;;;;7.47;100.00;98451.43;1740232;81;21133;-71
2022/10/04 01:21:22;;;;;;;1.12;0.20;;;;;;;7.49;100.00;98455.47;1735380;82;22005;-75
2022/10/04 01:23:57;;;;;;;1.20;0.20;;;;;;;7.50;100.00;98460.34;1711433;82;21668;-67
2022/10/04 01:26:35;;;;;;;2.33;0.28;;;;;;;7.49;100.00;98462.77;1706319;82;21096;-67
2022/10/04 01:29:12;;;;;;;0.65;0.30;;;;;;;7.53;100.00;98457.60;1712410;82;21103;-67
2022/10/04 01:31:44;;;;;;;0.53;0.20;;;;;;;7.53;100.00;98454.89;1735793;82;21070;-68
2022/10/04 01:34:17;;;;;;;1.05;0.20;;;;;;;7.47;100.00;98455.49;1737298;82;21737;-69
2022/10/04 01:36:45;;;;;;;3.67;0.40;;;;;;;7.47;100.00;98463.05;1725896;82;21160;-67
2022/10/04 01:39:13;;;;;;;1.75;0.20;;;;;;;7.50;100.00;98465.75;1713889;82;21068;-71
2022/10/04 01:42:10;;;;;;;1.52;0.30;;;;;;;7.50;100.00;98471.17;1733056;82;21130;-71
2022/10/04 01:44:48;;;;;;;1.07;0.30;;;;;;;7.48;100.00;98474.15;1719106;82;21047;-68
2022/10/04 01:47:21;;;;;;;0.40;0.20;;;;;;;7.51;100.00;98473.58;1733914;82;21035;-68
2022/10/04 01:49:47;;;;;;;0.65;0.30;;;;;;;7.56;100.00;98475.45;1737816;82;21622;-72
2022/10/04 01:52:28;;;;;;;2.87;0.30;;;;;;;7.56;100.00;98476.80;1725096;82;21017;-73
2022/10/04 01:55:12;;;;;;;0.60;0.30;;;;;;;7.57;100.00;98483.03;1709024;84;21087;-74
2022/10/04 01:57:49;;;;;;;1.95;0.30;;;;;;;7.62;100.00;98485.69;1709312;84;20972;-73
2022/10/04 02:00:15;;;;;;;2.05;0.30;;;;;;;7.64;100.00;98484.87;1712886;82;21118;-70
2022/10/04 02:03:03;;;;;;;0.72;0.20;;;;;;;7.63;100.00;98484.06;1735111;82;20988;-72
2022/10/04 02:05:46;;;;;;;0.50;0.23;;;;;;;7.63;100.00;98485.95;1677725;84;21563;-71
2022/10/04 02:08:17;;;;;;;4.12;0.20;;;;;;;7.69;100.00;98480.75;1696394;84;21015;-75
2022/10/04 02:10:44;;;;;;;1.02;0.35;;;;;;;7.72;100.00;98498.61;1691827;84;21086;-75
2022/10/04 02:13:14;;;;;;;0.65;0.30;;;;;;;7.69;100.00;98484.81;1697288;84;21391;-75
2022/10/04 02:15:40;;;;;;;1.25;0.30;;;;;;;7.71;100.00;98490.78;1694252;84;21066;-75
2022/10/04 02:18:11;;;;;;;0.50;0.30;;;;;;;7.76;100.00;98489.39;1692575;84;21063;-65
2022/10/04 02:20:38;;;;;;;1.35;0.40;;;;;;;7.77;100.00;98499.93;1677157;84;21130;-65
2022/10/04 02:23:05;;;;;;;0.95;0.30;;;;;;;7.75;100.00;98496.70;1693386;84;21093;-67
2022/10/04 02:25:31;;;;;;;1.00;0.40;;;;;;;7.80;100.00;98500.72;1675680;84;21061;-70
2022/10/04 02:27:58;;;;;;;1.65;0.40;;;;;;;7.82;100.00;98504.51;1725665;83;22097;-65
2022/10/04 02:30:24;;;;;;;1.02;0.30;;;;;;;7.80;100.00;98506.67;1726229;82;21068;-65
2022/10/04 02:32:58;;;;;;;1.42;0.70;;;;;;;7.79;100.00;98515.37;1738019;82;21479;-64
2022/10/04 02:35:34;;;;;;;0.95;0.30;;;;;;;7.80;100.00;98536.48;1745155;82;21059;-64
2022/10/04 02:38:21;;;;;;;4.67;0.40;;;;;;;7.76;100.00;98532.17;1745444;82;21047;-73
2022/10/04 02:41:02;;;;;;;0.82;0.30;;;;;;;7.70;100.00;98536.02;1715317;82;21063;-72
2022/10/04 02:43:43;;;;;;;0.60;0.30;;;;;;;7.64;100.00;98545.81;1731313;82;21059;-68
2022/10/04 02:46:13;;;;;;;0.80;0.25;;;;;;;7.67;100.00;98547.41;1742358;82;22410;-67
2022/10/04 02:48:46;;;;;;;1.10;0.28;;;;;;;7.66;100.00;98548.50;1745338;82;21590;-72
2022/10/04 02:51:24;;;;;;;1.10;0.30;;;;;;;7.59;100.00;98556.67;1745646;81;21484;-68
2022/10/04 02:54:02;;;;;;;0.75;0.20;;;;;;;7.55;100.00;98558.31;1718531;82;21000;-68
2022/10/04 02:56:28;;;;;;;0.62;0.30;;;;;;;7.53;100.00;98553.73;1745468;82;21062;-71
2022/10/04 02:59:02;;;;;;;0.47;0.20;;;;;;;7.47;100.00;98558.39;1745513;82;21030;-65
2022/10/04 03:01:42;;;;;;;1.10;0.20;;;;;;;7.48;100.00;98562.69;1708995;82;21640;-67
2022/10/04 03:04:11;;;;;;;1.67;0.20;;;;;;;7.48;100.00;98555.38;1727189;82;21078;-70
2022/10/04 03:06:38;;;;;;;4.17;0.30;;;;;;;7.47;100.00;98563.23;1745298;82;21094;-71
2022/10/04 03:09:05;;;;;;;2.05;0.20;;;;;;;7.44;100.00;98557.56;1743860;82;21129;-65
2022/10/04 03:11:36;;;;;;;0.20;0.10;;;;;;;7.42;100.00;98560.57;1727955;82;21578;-68
2022/10/04 03:14:19;;;;;;;1.45;0.13;;;;;;;7.45;100.00;98570.02;1735040;82;21106;-65
2022/10/04 03:16:46;;;;;;;0.28;0.10;;;;;;;7.44;100.00;98577.88;1735910;82;21063;-67
2022/10/04 03:19:15;;;;;;;0.25;0.10;;;;;;;7.37;100.00;98577.37;1677857;83;21086;-68
2022/10/04 03:21:42;;;;;;;0.60;0.10;;;;;;;7.35;100.00;98576.85;1743474;81;21088;-65
2022/10/04 03:24:09;;;;;;;1.72;0.10;;;;;;;7.36;100.00;98575.77;1738285;81;21054;-68
2022/10/04 03:26:41;;;;;;;0.30;0.10;;;;;;;7.35;100.00;98576.85;1742596;81;21084;-65
2022/10/04 03:29:10;;;;;;;1.95;0.05;;;;;;;7.33;100.00;98577.12;1748876;82;22342;-68
2022/10/04 03:31:40;;;;;;;0.65;0.28;;;;;;;7.35;100.00;98579.56;1755301;81;21954;-69
2022/10/04 03:34:16;;;;;;;0.35;0.10;;;;;;;7.34;100.00;98586.87;1742016;81;21086;-70
2022/10/04 03:36:43;;;;;;;0.10;0.10;;;;;;;7.29;100.00;98585.56;1743474;81;21079;-69
2022/10/04 03:39:10;;;;;;;0.37;0.15;;;;;;;7.27;100.00;98589.07;1737566;81;21006;-68
2022/10/04 03:41:39;;;;;;;0.57;0.20;;;;;;;7.28;100.00;98590.70;1735308;81;21077;-65
2022/10/04 03:44:08;;;;;;;1.20;0.20;;;;;;;7.25;100.00;98589.91;1703359;83;21027;-70
2022/10/04 03:46:35;;;;;;;0.70;0.10;;;;;;;7.19;100.00;98589.64;1737308;80;21548;-70
2022/10/04 03:49:01;;;;;;;0.95;0.25;;;;;;;7.18;100.00;98592.64;1735871;81;20966;-70
2022/10/04 03:51:28;;;;;;;0.20;0.10;;;;;;;7.19;100.00;98588.85;1747248;81;21058;-73
2022/10/04 03:53:56;;;;;;;;;;;;;;;7.14;100.00;98592.38;1749705;81;21907;-72
2022/10/04 03:56:32;;;;;;;0.60;0.20;;;;;;;7.13;100.00;98592.64;1753261;81;20540;-72
2022/10/04 03:59:00;;;;;;;0.50;0.20;;;;;;;7.13;100.00;98590.75;1744212;80;21066;-70
2022/10/04 04:01:39;;;;;;;3.35;0.40;;;;;;;7.11;100.00;98594.83;1708193;83;21153;-69
2022/10/04 04:04:30;;;;;;;0.98;0.30;;;;;;;7.06;100.00;98602.95;1736498;81;21035;-70
2022/10/04 04:07:04;;;;;;;0.45;0.23;;;;;;;7.07;100.00;98606.75;1748812;81;21500;-70
2022/10/04 04:09:49;;;;;;;0.70;0.30;;;;;;;7.07;100.00;98601.34;1740792;82;21660;-71
2022/10/04 04:12:42;;;;;;;0.60;0.20;;;;;;;7.05;100.00;98606.77;1747489;81;21001;-72
2022/10/04 04:15:10;;;;;;;4.95;0.20;;;;;;;7.06;100.00;98615.13;1738804;81;21078;-72
2022/10/04 04:17:51;;;;;;;0.10;0.10;;;;;;;7.07;100.00;98608.11;1759190;81;21070;-66
2022/10/04 04:20:25;;;;;;;0.25;0.10;;;;;;;7.09;100.00;98615.93;1736028;81;21598;-69
2022/10/04 04:23:03;;;;;;;1.52;0.10;;;;;;;7.10;100.00;98622.44;1736199;82;21020;-72
2022/10/04 04:25:32;;;;;;;1.52;0.10;;;;;;;7.13;100.00;98620.52;1731663;81;21155;-74
2022/10/04 04:28:03;;;;;;;0.78;0.10;;;;;;;7.16;100.00;98617.26;1724953;82;21546;-73
2022/10/04 04:30:30;;;;;;;0.88;0.20;;;;;;;7.15;100.00;98634.61;1736470;82;21230;-68
2022/10/04 04:32:58;;;;;;;0.30;0.10;;;;;;;7.17;100.00;98623.48;1737305;82;21086;-70
2022/10/04 04:35:31;;;;;;;0.20;0.10;;;;;;;7.23;100.00;98635.37;1735941;82;22282;-71
2022/10/04 04:38:08;;;;;;;0.57;0.10;;;;;;;7.21;100.00;98626.73;1737386;82;21020;-70
2022/10/04 04:40:36;;;;;;;0.10;0.10;;;;;;;7.21;100.00;98629.97;1733249;82;21612;-72
2022/10/04 04:43:03;;;;;;;1.17;0.10;;;;;;;7.24;100.00;98639.70;1723815;83;21529;-72
2022/10/04 04:45:30;;;;;;;0.40;0.10;;;;;;;7.21;100.00;98641.61;1716259;82;21063;-72
2022/10/04 04:47:57;;;;;;;1.55;0.20;;;;;;;7.20;100.00;98645.94;1736983;82;20980;-73
2022/10/04 04:50:30;;;;;;;0.30;0.10;;;;;;;7.26;100.00;98653.76;1731957;82;21566;-73
2022/10/04 04:53:11;;;;;;;0.28;0.20;;;;;;;7.26;100.00;98652.41;1708480;84;21019;-73
2022/10/04 04:55:43;;;;;;;1.62;0.20;;;;;;;7.32;100.00;98656.73;1717186;82;21172;-72
2022/10/04 04:58:20;;;;;;;0.23;0.17;;;;;;;7.39;100.00;98659.95;1722759;83;21052;-73
2022/10/04 05:00:59;;;;;;;1.00;0.20;;;;;;;7.42;100.00;98662.64;1722833;82;21059;-73
2022/10/04 05:03:28;;;;;;;0.40;0.10;;;;;;;7.43;100.00;98677.81;1724236;82;21051;-73
2022/10/04 05:05:56;;;;;;;1.35;0.20;;;;;;;7.48;100.00;98673.72;1728371;82;21095;-73
2022/10/04 05:08:28;;;;;;;1.35;0.10;;;;;;;7.59;100.00;98682.61;1707802;84;21342;-68
2022/10/04 05:11:08;;;;;;;1.42;0.10;;;;;;;7.61;100.00;98679.91;1720620;82;21067;-69
2022/10/04 05:13:51;;;;;;;2.05;0.20;;;;;;;7.64;100.00;98686.12;1710766;82;21091;-68
2022/10/04 05:16:41;;;;;;;1.60;0.20;;;;;;;7.72;100.00;98686.09;1724164;82;21138;-72
2022/10/04 05:19:20;;;;;;;0.50;0.20;;;;;;;7.74;100.00;98687.96;1716120;82;21027;-71
2022/10/04 05:21:48;;;;;;;0.60;0.23;;;;;;;7.73;100.00;98688.50;1742260;82;21098;-73
2022/10/04 05:24:27;;;;;;;0.60;0.10;;;;;;;7.81;100.00;98699.30;1750809;81;21096;-72
2022/10/04 05:26:58;;;;;;;1.07;0.23;;;;;;;7.89;100.00;98705.50;1737755;82;21054;-70
2022/10/04 05:29:32;;;;;;;0.98;0.23;;;;;;;7.89;100.00;98700.90;1749447;82;21077;-72
2022/10/04 05:32:23;;;;;;;0.80;0.30;;;;;;;7.90;100.00;98708.48;1740961;82;21088;-68
2022/10/04 05:34:52;;;;;;;1.90;0.30;;;;;;;7.97;100.00;98708.42;1739534;82;21069;-72
2022/10/04 05:37:50;;;;;;;1.22;0.30;;;;;;;8.06;100.00;98707.84;1742338;82;20979;-69
2022/10/04 05:40:28;;;;;;;0.65;0.30;;;;;;;8.13;100.00;98714.58;1729354;82;21585;-73
2022/10/04 05:42:57;;;;;;;0.62;0.30;;;;;;;8.31;100.00;98718.02;1750283;82;21048;-69
2022/10/04 05:45:27;;;;;;;1.55;0.37;;;;;;;8.40;100.00;98714.14;1723248;82;21087;-72
2022/10/04 05:47:56;;;;;;;1.42;0.30;;;;;;;8.49;100.00;98725.48;1720905;82;20991;-73
2022/10/04 05:50:40;;;;;;;1.77;0.40;;;;;;;8.60;100.00;98729.48;1733971;82;21039;-67
2022/10/04 05:53:28;;;;;;;3.65;0.50;;;;;;;8.67;100.00;98734.85;1725652;82;20983;-71
2022/10/04 05:56:31;;;;;;;1.40;0.47;;;;;;;8.65;100.00;98740.27;1737682;82;21856;-72
2022/10/04 05:59:23;;;;;;;1.57;0.30;;;;;;;8.66;100.00;98736.48;1727580;82;21596;-72
2022/10/04 06:02:30;;;;;;;2.77;0.70;;;;;;;8.69;100.00;98735.91;1738235;80;21093;-68
2022/10/04 06:05:26;;;;;;;0.82;0.47;;;;;;;8.67;100.00;98747.06;1736567;80;21131;-71
2022/10/04 06:08:49;;;;;;;2.45;0.70;;;;;;;8.70;100.00;98744.31;1741778;82;21493;-69
2022/10/04 06:12:02;;;;;;;1.98;0.72;;;;;;;8.84;100.00;98746.64;1741420;80;21055;-67
2022/10/04 06:15:07;;;;;;;0.72;0.40;;;;;;;8.91;100.00;98756.63;1745990;80;21075;-71
2022/10/04 06:18:10;;;;;;;5.10;2.00;;;;;;;9.02;100.00;98761.42;1682937;84;21022;-73
2022/10/04 06:21:26;;;;;;;1.37;0.65;;;;;;;9.10;100.00;98756.20;1588956;86;21183;-74
2022/10/04 06:24:11;;;;;;;6.95;3.27;;;;;;;9.15;100.00;98762.92;1690290;84;21037;-68
2022/10/04 06:26:42;;;;;;;3.92;2.10;;;;;;;9.22;100.00;98762.59;1692044;84;21152;-67
2022/10/04 06:29:16;;;;;;;4.53;1.17;;;;;;;9.23;100.00;98770.45;1702100;83;21030;-68
2022/10/04 06:32:09;;;;;;;1.22;0.50;;;;;;;9.26;100.00;98772.59;1705316;83;21046;-69
2022/10/04 06:35:07;;;;;;;2.00;0.70;;;;;;;9.37;100.00;98776.02;1685344;84;20998;-68
2022/10/04 06:37:47;;;;;;;;;;;;;;;9.38;100.00;98787.97;1696424;84;21081;-74
2022/10/04 06:41:03;;;;;;;1.92;0.68;;;;;;;9.42;100.00;98787.63;1681687;84;20138;-70
2022/10/04 06:43:55;;;;;;;1.35;0.65;;;;;;;9.42;100.00;98787.63;1681443;84;21101;-73
2022/10/04 06:46:39;;;;;;;1.60;0.50;;;;;;;9.48;100.00;98792.48;1680092;84;21081;-68
2022/10/04 06:49:34;;;;;;;2.08;0.90;;;;;;;9.55;100.00;98791.59;1701009;83;21075;-66
2022/10/04 06:52:21;;;;;;;2.45;0.90;;;;;;;9.55;100.00;98802.47;1678352;85;21069;-72
2022/10/04 06:55:39;;;;;;;1.90;0.90;;;;;;;9.57;100.00;98804.87;1696479;84;21124;-67
2022/10/04 06:58:32;;;;;;;2.30;0.90;;;;;;;9.64;100.00;98808.06;1692690;84;21114;-68
2022/10/04 07:01:18;;;;;;;5.05;1.10;;;;;;;9.66;100.00;98819.47;1676581;84;21122;-68
2022/10/04 07:04:06;;;;;;;1.57;0.70;;;;;;;9.69;100.00;98819.70;1702736;83;21019;-71
2022/10/04 07:06:41;;;;;;;2.83;0.90;;;;;;;9.75;100.00;98827.24;1704774;84;21087;-67
2022/10/04 07:09:16;;;;;;;2.35;0.75;;;;;;;9.69;100.00;98829.22;1717145;83;21018;-73
2022/10/04 07:11:56;;;;;;;2.05;0.80;;;;;;;9.69;100.00;98817.53;1683527;84;21157;-70
2022/10/04 07:14:29;;;;;;;1.95;0.90;;;;;;;9.68;100.00;98830.31;1706518;83;21512;-67
2022/10/04 07:17:09;;;;;;;2.08;0.80;;;;;;;9.61;100.00;98833.91;1693800;84;21130;-68
2022/10/04 07:19:39;;;;;;;1.82;0.95;;;;;;;9.54;100.00;98836.16;1711683;83;21384;-69
2022/10/04 07:22:14;;;;;;;1.42;0.65;;;;;;;9.49;100.00;98842.44;1666594;84;21106;-67
2022/10/04 07:25:27;;;;;;;5.53;2.83;;;;;;;9.43;100.00;98842.23;1700160;84;21051;-68
2022/10/04 07:31:11;;;;;;;3.62;1.82;;;;;;;9.43;100.00;98848.20;1688267;84;21177;-70
2022/10/04 07:33:44;;;;;;;15.67;10.83;;;;;;;9.36;100.00;98860.77;1701732;84;21038;-72
2022/10/04 07:36:14;;;;;;;18.70;14.23;;;;;;;9.34;100.00;98865.69;1689221;84;21087;-68
2022/10/04 07:38:51;;;;;;;9.43;6.50;;;;;;;9.37;100.00;98864.30;1713752;84;21063;-67
2022/10/04 07:41:23;;;;;;;3.37;1.02;;;;;;;9.36;100.00;98874.34;1703566;84;21122;-69
2022/10/04 07:44:04;;;;;;;4.72;1.30;;;;;;;9.36;100.00;98879.78;1711743;84;21070;-71
2022/10/04 07:46:54;;;;;;;2.55;1.35;;;;;;;9.37;100.00;98875.98;1707211;84;21126;-69
2022/10/04 07:49:21;;;;;;;2.67;1.20;;;;;;;9.32;100.00;98887.41;1684482;84;21324;-69
2022/10/04 07:52:24;;;;;;;5.20;1.27;;;;;;;9.30;100.00;98892.33;1662132;85;21105;-69
2022/10/04 07:55:01;;;;;;;4.05;1.60;;;;;;;9.30;100.00;98892.33;1663522;85;21017;-69
2022/10/04 07:58:07;;;;;;;5.40;1.57;;;;;;;9.22;100.00;98902.44;1688205;83;21448;-71
2022/10/04 08:01:05;;;;;;;3.67;1.45;;;;;;;9.14;100.00;98903.84;1685101;84;21685;-69
2022/10/04 08:03:58;;;;;;;2.15;1.10;;;;;;;9.14;100.00;98905.20;1680196;84;21070;-68
2022/10/04 08:07:03;;;;;;;6.90;1.35;;;;;;;9.14;100.00;98909.84;1673058;84;21199;-70
2022/10/04 08:10:16;;;;;;;4.00;1.45;;;;;;;9.19;100.00;98906.53;1699711;84;21136;-67
2022/10/04 08:12:57;;;;;;;5.08;1.47;;;;;;;9.31;100.00;98906.19;1665956;83;21609;-66
2022/10/04 08:15:28;;;;;;;4.08;1.62;;;;;;;9.36;100.00;98924.59;1688647;84;21102;-67
2022/10/04 08:18:38;;;;;;;4.22;1.57;;;;;;;9.48;100.00;98914.73;1690692;84;21881;-69
2022/10/04 08:21:09;;;;;;;3.98;1.72;;;;;;;9.62;100.00;98918.96;1679861;84;21816;-68
2022/10/04 08:23:56;;;;;;;4.90;1.70;;;;;;;9.66;100.00;98915.40;1712838;83;21572;-68
2022/10/04 08:26:46;;;;;;;4.92;1.77;;;;;;;9.70;100.00;98915.64;1720156;83;21074;-74
2022/10/04 08:29:41;;;;;;;3.35;1.62;;;;;;;9.77;100.00;98918.83;1707985;83;21374;-68
2022/10/04 08:32:50;;;;;;;3.50;2.25;;;;;;;9.81;100.00;98922.03;1685291;83;21023;-66
2022/10/04 08:35:35;;;;;;;5.45;1.70;;;;;;;9.87;100.00;98922.27;1711052;83;21078;-69
2022/10/04 08:38:34;;;;;;;5.05;1.62;;;;;;;10.00;100.00;98930.28;1683237;83;21322;-68
2022/10/04 08:41:28;;;;;;;3.45;1.82;;;;;;;9.98;100.00;98930.59;1690998;83;21105;-70
2022/10/04 08:44:28;;;;;;;3.12;1.47;;;;;;;9.95;100.00;98938.52;1664956;84;21648;-66
2022/10/04 08:47:29;;;;;;;5.22;1.40;;;;;;;9.94;100.00;98936.88;1681187;84;21081;-71
2022/10/04 08:50:11;;;;;;;3.67;1.62;;;;;;;9.84;100.00;98936.44;1691468;83;21436;-69
2022/10/04 08:53:18;;;;;;;2.95;1.40;;;;;;;9.81;100.00;98949.79;1689796;84;21080;-71
2022/10/04 08:56:25;;;;;;;3.08;1.37;;;;;;;9.82;100.00;98952.20;1688771;84;21068;-66
2022/10/04 08:59:22;;;;;;;3.92;1.50;;;;;;;9.79;100.00;98956.86;1712412;83;21006;-67
2022/10/04 09:02:11;;;;;;;2.93;1.47;;;;;;;9.69;100.00;98964.28;1709519;83;21070;-71
2022/10/04 09:05:31;;;;;;;2.90;1.50;;;;;;;9.70;100.00;98968.63;1704624;83;21540;-71
2022/10/04 09:08:23;;;;;;;4.37;1.67;;;;;;;9.65;100.00;98966.77;1693762;84;21108;-71
2022/10/04 09:11:07;;;;;;;4.83;1.82;;;;;;;9.62;100.00;98978.74;1644374;85;21132;-72
2022/10/04 09:13:42;;;;;;;14.30;7.25;;;;;;;9.65;100.00;98987.14;1700757;83;21018;-68
2022/10/04 09:16:28;;;;;;;11.83;4.08;;;;;;;9.63;100.00;98981.19;1711633;83;21085;-68
2022/10/04 09:19:21;;;;;;;5.92;2.72;;;;;;;9.64;100.00;98988.77;1691371;84;21699;-73
2022/10/04 09:22:35;;;;;;;4.50;2.22;;;;;;;9.73;100.00;98996.59;1660384;85;21114;-73
2022/10/04 09:25:31;;;;;;;4.37;2.08;;;;;;;9.78;100.00;98992.46;1723388;82;21043;-71
2022/10/04 09:28:24;;;;;;;3.37;1.65;;;;;;;9.72;100.00;99001.22;1735787;82;21578;-74
2022/10/04 09:31:03;;;;;;;3.65;2.20;;;;;;;9.76;100.00;99002.27;1682287;82;21628;-74
2022/10/04 09:35:50;;;;;;;7.03;2.03;;;;;;;9.90;100.00;99000.53;1784115;79;22833;-66
2022/10/04 09:38:41;;;;;;;4.50;2.15;;;;;;;9.89;100.00;99015.20;1740443;81;21102;-69
2022/10/04 09:41:46;;;;;;;3.35;1.82;;;;;;;10.02;100.00;99021.10;1708191;83;21071;-67
2022/10/04 09:45:04;;;;;;;2.33;1.32;;;;;;;10.02;100.00;99012.40;1697371;83;21716;-70
2022/10/04 09:47:36;;;;;;;3.45;1.50;;;;;;;10.02;100.00;99019.20;1692336;83;21667;-68
2022/10/04 09:50:12;;;;;;;3.42;1.60;;;;;;;9.98;100.00;99019.50;1675195;82;21120;-67
2022/10/04 09:53:06;;;;;;;2.40;1.40;;;;;;;9.96;100.00;99016.23;1701150;83;21424;-66
2022/10/04 09:55:57;;;;;;;3.60;1.40;;;;;;;10.04;100.00;99022.97;1702661;83;21107;-68
2022/10/04 09:58:42;;;;;;;2.95;1.40;;;;;;;10.10;100.00;99024.54;1699296;83;21716;-66
2022/10/04 10:01:48;;;;;;;4.20;1.30;;;;;;;10.05;100.00;99027.33;1711214;83;21007;-67
2022/10/04 10:04:27;;;;;;;4.25;1.37;;;;;;;10.09;100.00;99037.35;1717785;83;21094;-69
2022/10/04 10:07:10;;;;;;;3.55;1.40;;;;;;;10.06;100.00;99037.90;1699629;83;21043;-68
2022/10/04 10:16:13;;;;;;;2.42;1.30;;;;;;;10.02;100.00;99045.03;1697257;83;21040;-69
2022/10/04 10:19:14;;;;;;;3.15;1.55;;;;;;;9.96;100.00;99057.02;1699005;83;21091;-70
2022/10/04 10:22:01;;;;;;;4.12;1.72;;;;;;;9.96;100.00;99049.68;1706907;83;21086;-67
2022/10/04 10:25:08;;;;;;;2.77;1.70;;;;;;;10.00;100.00;99056.17;1712319;83;22032;-67
2022/10/04 10:27:43;;;;;;;5.65;2.08;;;;;;;10.05;100.00;99064.84;1700731;83;21673;-68
2022/10/04 10:30:31;;;;;;;4.08;1.80;;;;;;;10.18;100.00;99057.42;1723810;83;21118;-68
2022/10/04 10:33:29;;;;;;;2.98;1.62;;;;;;;10.27;100.00;99069.30;1720286;83;21062;-69
2022/10/04 10:36:20;;;;;;;3.35;1.77;;;;;;;10.38;100.00;99071.41;1703674;83;21364;-69
2022/10/04 10:39:34;;;;;;;3.47;1.65;;;;;;;10.52;100.00;99069.63;1715862;83;21090;-67
2022/10/04 10:42:20;;;;;;;2.55;1.37;;;;;;;10.59;100.00;99066.02;1700812;83;21518;-66
2022/10/04 10:45:01;;;;;;;3.33;1.80;;;;;;;10.75;100.00;99070.73;1715858;83;22192;-68
2022/10/04 10:47:44;;;;;;;3.05;1.50;;;;;;;10.78;100.00;99061.99;1700547;83;21094;-67
2022/10/04 10:50:26;;;;;;;2.65;1.40;;;;;;;10.77;100.00;99063.90;1710317;83;21730;-70
2022/10/04 10:53:13;;;;;;;4.15;1.75;;;;;;;10.79;100.00;99060.36;1699437;83;21467;-68
2022/10/04 10:56:25;;;;;;;5.72;1.77;;;;;;;10.77;100.00;99053.59;1646482;85;21092;-67
2022/10/04 10:59:36;;;;;;;3.58;1.87;;;;;;;10.80;100.00;99055.73;1697537;83;21100;-68
2022/10/04 11:02:35;;;;;;;4.25;2.20;;;;;;;10.82;100.00;99063.86;1711404;83;21039;-70
2022/10/04 11:05:25;;;;;;;;;;;;;;;10.76;100.00;99058.77;1701231;82;21712;-69
2022/10/04 11:08:05;;;;;;;2.52;1.70;;;;;;;10.72;100.00;99061.80;1706546;83;20164;-70
2022/10/04 11:10:58;;;;;;;4.90;1.67;;;;;;;10.68;100.00;99064.83;1696491;83;21072;-69
2022/10/04 11:13:53;;;;;;;6.08;1.90;;;;;;;10.65;100.00;99065.41;1702283;84;21606;-68
2022/10/04 11:17:02;;;;;;;4.92;2.00;;;;;;;10.56;100.00;99062.49;1700775;83;21004;-67
2022/10/04 11:20:12;;;;;;;5.37;1.87;;;;;;;10.54;100.00;99072.05;1697631;83;21126;-66
2022/10/04 11:23:13;;;;;;;4.05;1.95;;;;;;;10.52;100.00;99074.27;1695626;82;21463;-68
2022/10/04 11:26:03;;;;;;;4.08;1.80;;;;;;;10.46;100.00;99072.13;1699806;83;21073;-67
2022/10/04 11:28:59;;;;;;;2.77;1.87;;;;;;;10.53;100.00;99072.59;1718792;83;21094;-67
2022/10/04 11:32:04;;;;;;;2.52;1.60;;;;;;;10.55;100.00;99072.32;1706570;83;21074;-67
2022/10/04 11:35:11;;;;;;;2.77;1.65;;;;;;;10.57;100.00;99075.01;1694628;83;21609;-68
2022/10/04 11:38:16;;;;;;;2.95;1.60;;;;;;;10.64;100.00;99076.84;1702182;83;21152;-67
2022/10/04 11:41:00;;;;;;;3.80;1.50;;;;;;;10.65;100.00;99081.74;1679040;84;21035;-68
2022/10/04 11:43:51;;;;;;;3.60;1.50;;;;;;;10.72;100.00;99084.94;1699283;83;21692;-66
2022/10/04 11:46:38;;;;;;;2.85;1.42;;;;;;;10.77;100.00;99084.89;1715399;83;21083;-68
2022/10/04 11:49:36;;;;;;;1.65;1.15;;;;;;;10.79;100.00;99086.77;1706985;83;21145;-66
2022/10/04 11:52:54;;;;;;;2.80;1.42;;;;;;;10.88;100.00;99096.72;1713434;83;21081;-66
2022/10/04 11:55:53;;;;;;;1.95;1.02;;;;;;;10.96;100.00;99097.46;1671632;84;21101;-69
2022/10/04 11:58:51;;;;;;;2.83;1.37;;;;;;;11.01;100.00;99088.43;1700585;84;21086;-68
2022/10/04 12:01:58;;;;;;;2.42;1.40;;;;;;;11.14;100.00;99097.25;1710457;83;21034;-67
2022/10/04 12:05:00;;;;;;;3.85;1.20;;;;;;;11.24;100.00;99100.40;1728918;83;21106;-67
2022/10/04 12:07:46;;;;;;;1.90;1.32;;;;;;;11.23;100.00;99102.30;1726570;82;21614;-67
2022/10/04 12:10:35;;;;;;;3.05;1.42;;;;;;;11.29;100.00;99097.08;1705191;83;21076;-68
2022/10/04 12:13:24;;;;;;;2.02;1.35;;;;;;;11.35;100.00;99105.98;1696393;83;21538;-69
2022/10/04 12:16:16;;;;;;;3.02;1.50;;;;;;;11.35;100.00;99097.27;1723741;83;21109;-69
2022/10/04 12:19:38;;;;;;;2.85;1.77;;;;;;;11.43;100.00;99100.71;1685352;84;21067;-68
2022/10/04 12:22:38;;;;;;;5.22;3.37;;;;;;;11.49;100.00;99097.35;1684754;85;21052;-67
2022/10/04 12:25:41;;;;;;;5.72;3.47;;;;;;;11.44;100.00;99104.25;1685490;84;21117;-69
2022/10/04 12:28:34;;;;;;;3.45;2.50;;;;;;;11.51;100.00;99106.61;1664977;84;21180;-70
2022/10/04 12:31:22;;;;;;;2.62;1.80;;;;;;;11.45;100.00;99109.39;1694559;84;21101;-68
2022/10/04 12:34:04;;;;;;;5.40;4.37;;;;;;;11.39;100.00;99105.66;1696030;82;21118;-66
2022/10/04 12:37:16;;;;;;;5.67;2.77;;;;;;;11.35;100.00;99110.89;1687292;84;21011;-69
2022/10/04 12:39:54;;;;;;;3.58;1.90;;;;;;;11.25;100.00;99110.20;1689417;84;21082;-69
2022/10/04 12:42:52;;;;;;;3.25;1.70;;;;;;;11.20;100.00;99115.16;1690448;84;21035;-67
2022/10/04 12:45:34;;;;;;;;;;;;;;;11.16;100.00;99130.45;1690780;83;21088;-68
2022/10/04 12:48:21;;;;;;;26.52;20.60;;;;;;;10.98;100.00;99131.23;1661366;83;20152;-66
2022/10/04 12:51:02;;;;;;;13.97;11.83;;;;;;;10.84;100.00;99146.63;1695349;83;21066;-68
2022/10/04 12:53:49;;;;;;;5.00;2.90;;;;;;;10.80;100.00;99142.84;1718407;83;21387;-69
2022/10/04 12:56:47;;;;;;;4.85;2.25;;;;;;;10.73;100.00;99149.99;1696603;83;21030;-70
2022/10/04 13:00:02;;;;;;;4.42;1.75;;;;;;;10.66;100.00;99158.22;1706903;83;21174;-68
2022/10/04 13:03:01;;;;;;;2.47;1.20;;;;;;;10.65;100.00;99171.56;1715043;83;21364;-68